Terminal Aerodrome Forecast
Issued by NWS Knoxville/Tri Cities, TN

Current Version | Previous Version | Text Only | Print | Product List | Glossary On
Versions: 1 2 3 4 5 6 7 8 9 10 11 12 13 14 15 16 17 18 19 20 21 22 23 24 25 26 27 28 29 30 31 32 33 34
183
FTUS44 KMRX 091721
TAFCHA
TAF
KCHA 091721Z 0918/1018 26012KT 6SM -SHSN SCT015 OVC025
     FM100100 29010KT P6SM OVC025
     FM101500 29010KT P6SM SCT025=

USA.gov is the U.S. government's official web portal to all federal, state and local government web resources and services.